sensor_id;sensor_type;location;lat;lon;timestamp;pressure;altitude;pressure_sealevel;temperature;humidity
46642;BME280;32370;41.864;-88.124;2022-12-18T00:01:02;98525.91;;;-7.18;84.43
46642;BME280;32370;41.864;-88.124;2022-12-18T00:03:30;98532.04;;;-7.45;84.08
46642;BME280;32370;41.864;-88.124;2022-12-18T00:05:58;98532.02;;;-7.38;85.38
46642;BME280;32370;41.864;-88.124;2022-12-18T00:08:26;98537.07;;;-7.19;85.23
46642;BME280;32370;41.864;-88.124;2022-12-18T00:10:54;98530.97;;;-7.39;84.79
46642;BME280;32370;41.864;-88.124;2022-12-18T00:13:22;98536.70;;;-7.00;83.69
46642;BME280;32370;41.864;-88.124;2022-12-18T00:15:51;98544.06;;;-7.19;82.37
46642;BME280;32370;41.864;-88.124;2022-12-18T00:18:19;98545.79;;;-7.45;82.91
46642;BME280;32370;41.864;-88.124;2022-12-18T00:20:47;98549.81;;;-7.15;82.90
46642;BME280;32370;41.864;-88.124;2022-12-18T00:23:15;98547.77;;;-7.02;81.85
46642;BME280;32370;41.864;-88.124;2022-12-18T00:25:43;98554.27;;;-7.59;82.35
46642;BME280;32370;41.864;-88.124;2022-12-18T00:28:13;98553.14;;;-6.93;82.79
46642;BME280;32370;41.864;-88.124;2022-12-18T00:30:41;98554.03;;;-7.58;81.98
46642;BME280;32370;41.864;-88.124;2022-12-18T00:33:09;98550.83;;;-7.83;83.91
46642;BME280;32370;41.864;-88.124;2022-12-18T00:35:37;98552.10;;;-7.65;83.09
46642;BME280;32370;41.864;-88.124;2022-12-18T00:38:05;98553.96;;;-7.16;83.15
46642;BME280;32370;41.864;-88.124;2022-12-18T00:40:33;98554.77;;;-7.62;83.15
46642;BME280;32370;41.864;-88.124;2022-12-18T00:43:01;98558.46;;;-7.43;82.24
46642;BME280;32370;41.864;-88.124;2022-12-18T00:45:31;98555.45;;;-7.59;81.91
46642;BME280;32370;41.864;-88.124;2022-12-18T00:47:59;98558.45;;;-7.94;82.03
46642;BME280;32370;41.864;-88.124;2022-12-18T00:50:27;98557.30;;;-7.66;83.21
46642;BME280;32370;41.864;-88.124;2022-12-18T00:52:55;98563.56;;;-7.45;81.62
46642;BME280;32370;41.864;-88.124;2022-12-18T00:55:23;98562.28;;;-7.41;82.69
46642;BME280;32370;41.864;-88.124;2022-12-18T00:57:52;98562.66;;;-7.94;81.78
46642;BME280;32370;41.864;-88.124;2022-12-18T01:00:20;98558.97;;;-7.55;82.64
46642;BME280;32370;41.864;-88.124;2022-12-18T01:02:48;98561.67;;;-7.55;81.31
46642;BME280;32370;41.864;-88.124;2022-12-18T01:05:16;98566.00;;;-8.21;82.98
46642;BME280;32370;41.864;-88.124;2022-12-18T01:07:44;98563.81;;;-8.18;83.47
46642;BME280;32370;41.864;-88.124;2022-12-18T01:10:13;98573.98;;;-8.11;84.80
46642;BME280;32370;41.864;-88.124;2022-12-18T01:12:42;98575.26;;;-7.94;83.79
46642;BME280;32370;41.864;-88.124;2022-12-18T01:15:11;98582.14;;;-7.94;83.88
46642;BME280;32370;41.864;-88.124;2022-12-18T01:17:39;98587.90;;;-8.05;84.68
46642;BME280;32370;41.864;-88.124;2022-12-18T01:20:10;98588.76;;;-8.27;84.04
46642;BME280;32370;41.864;-88.124;2022-12-18T01:22:38;98583.41;;;-7.92;84.04
46642;BME280;32370;41.864;-88.124;2022-12-18T01:25:07;98580.56;;;-7.86;84.58
46642;BME280;32370;41.864;-88.124;2022-12-18T01:27:35;98586.37;;;-7.88;84.34
46642;BME280;32370;41.864;-88.124;2022-12-18T01:30:06;98593.36;;;-8.32;84.00
46642;BME280;32370;41.864;-88.124;2022-12-18T01:32:34;98596.76;;;-7.99;85.37
46642;BME280;32370;41.864;-88.124;2022-12-18T01:35:03;98595.32;;;-8.38;85.45
46642;BME280;32370;41.864;-88.124;2022-12-18T01:37:30;98598.34;;;-7.89;85.02
46642;BME280;32370;41.864;-88.124;2022-12-18T01:39:59;98598.53;;;-7.20;84.73
46642;BME280;32370;41.864;-88.124;2022-12-18T01:42:27;98608.61;;;-7.92;83.62
46642;BME280;32370;41.864;-88.124;2022-12-18T01:44:59;98603.88;;;-7.87;84.69
46642;BME280;32370;41.864;-88.124;2022-12-18T01:47:32;98605.41;;;-7.74;84.16
46642;BME280;32370;41.864;-88.124;2022-12-18T01:50:04;98608.88;;;-8.28;84.33
46642;BME280;32370;41.864;-88.124;2022-12-18T01:52:34;98610.33;;;-7.73;84.48
46642;BME280;32370;41.864;-88.124;2022-12-18T01:55:06;98613.31;;;-7.59;83.47
46642;BME280;32370;41.864;-88.124;2022-12-18T01:57:35;98614.66;;;-7.99;82.95
46642;BME280;32370;41.864;-88.124;2022-12-18T02:00:07;98615.54;;;-7.74;83.26
46642;BME280;32370;41.864;-88.124;2022-12-18T02:02:36;98618.76;;;-8.09;83.93
46642;BME280;32370;41.864;-88.124;2022-12-18T02:05:06;98616.43;;;-8.03;83.62
46642;BME280;32370;41.864;-88.124;2022-12-18T02:07:44;98615.84;;;-8.38;83.33
46642;BME280;32370;41.864;-88.124;2022-12-18T02:10:17;98620.38;;;-8.22;83.58
46642;BME280;32370;41.864;-88.124;2022-12-18T02:12:51;98619.95;;;-8.22;84.47
46642;BME280;32370;41.864;-88.124;2022-12-18T02:15:25;98619.49;;;-8.13;84.55
46642;BME280;32370;41.864;-88.124;2022-12-18T02:17:58;98627.31;;;-7.89;85.07
46642;BME280;32370;41.864;-88.124;2022-12-18T02:20:35;98625.17;;;-8.31;85.08
46642;BME280;32370;41.864;-88.124;2022-12-18T02:23:11;98621.17;;;-7.92;84.97
46642;BME280;32370;41.864;-88.124;2022-12-18T02:25:53;98625.81;;;-8.18;84.67
46642;BME280;32370;41.864;-88.124;2022-12-18T02:28:30;98624.91;;;-8.05;85.09
46642;BME280;32370;41.864;-88.124;2022-12-18T02:31:02;98623.53;;;-8.07;84.93
46642;BME280;32370;41.864;-88.124;2022-12-18T02:33:34;98627.02;;;-7.66;83.80
46642;BME280;32370;41.864;-88.124;2022-12-18T02:36:04;98624.46;;;-7.97;83.86
46642;BME280;32370;41.864;-88.124;2022-12-18T02:38:34;98630.14;;;-7.88;83.26
46642;BME280;32370;41.864;-88.124;2022-12-18T02:41:02;98631.89;;;-7.74;84.06
46642;BME280;32370;41.864;-88.124;2022-12-18T02:43:31;98630.78;;;-7.30;83.81
46642;BME280;32370;41.864;-88.124;2022-12-18T02:46:00;98629.27;;;-8.08;83.96
46642;BME280;32370;41.864;-88.124;2022-12-18T02:48:48;98638.45;;;-8.18;83.65
46642;BME280;32370;41.864;-88.124;2022-12-18T02:51:23;98633.92;;;-8.39;85.55
46642;BME280;32370;41.864;-88.124;2022-12-18T02:54:00;98632.73;;;-7.99;86.39
46642;BME280;32370;41.864;-88.124;2022-12-18T02:56:35;98639.63;;;-8.15;84.18
46642;BME280;32370;41.864;-88.124;2022-12-18T02:59:11;98641.38;;;-8.54;84.69
46642;BME280;32370;41.864;-88.124;2022-12-18T03:01:45;98644.64;;;-8.36;84.73
46642;BME280;32370;41.864;-88.124;2022-12-18T03:04:20;98641.66;;;-8.73;86.23
46642;BME280;32370;41.864;-88.124;2022-12-18T03:06:54;98638.56;;;-8.21;87.37
46642;BME280;32370;41.864;-88.124;2022-12-18T03:09:27;98639.97;;;-8.53;86.30
46642;BME280;32370;41.864;-88.124;2022-12-18T03:11:58;98639.51;;;-8.53;86.96
46642;BME280;32370;41.864;-88.124;2022-12-18T03:14:31;98635.17;;;-8.17;86.61
46642;BME280;32370;41.864;-88.124;2022-12-18T03:17:04;98639.37;;;-7.99;85.87
46642;BME280;32370;41.864;-88.124;2022-12-18T03:19:35;98640.86;;;-8.35;85.88
46642;BME280;32370;41.864;-88.124;2022-12-18T03:22:05;98641.56;;;-8.19;85.36
46642;BME280;32370;41.864;-88.124;2022-12-18T03:24:36;98642.11;;;-8.01;84.42
46642;BME280;32370;41.864;-88.124;2022-12-18T03:27:08;98645.87;;;-8.46;82.90
46642;BME280;32370;41.864;-88.124;2022-12-18T03:29:40;98648.75;;;-8.60;85.13
46642;BME280;32370;41.864;-88.124;2022-12-18T03:32:12;98650.86;;;-8.97;85.58
46642;BME280;32370;41.864;-88.124;2022-12-18T03:34:43;98651.67;;;-8.58;85.60
46642;BME280;32370;41.864;-88.124;2022-12-18T03:37:14;98652.27;;;-8.37;85.30
46642;BME280;32370;41.864;-88.124;2022-12-18T03:39:43;98658.84;;;-8.27;85.25
46642;BME280;32370;41.864;-88.124;2022-12-18T03:42:16;98657.88;;;-7.91;85.23
46642;BME280;32370;41.864;-88.124;2022-12-18T03:44:54;98665.73;;;-8.73;85.13
46642;BME280;32370;41.864;-88.124;2022-12-18T03:47:28;98667.81;;;-8.64;86.47
46642;BME280;32370;41.864;-88.124;2022-12-18T03:50:05;98667.40;;;-8.60;86.52
46642;BME280;32370;41.864;-88.124;2022-12-18T03:52:41;98676.63;;;-8.85;86.33
46642;BME280;32370;41.864;-88.124;2022-12-18T03:55:11;98680.70;;;-8.53;86.14
46642;BME280;32370;41.864;-88.124;2022-12-18T03:57:39;98683.36;;;-8.06;85.39
46642;BME280;32370;41.864;-88.124;2022-12-18T04:00:12;98684.30;;;-8.79;84.13
46642;BME280;32370;41.864;-88.124;2022-12-18T04:02:44;98686.67;;;-8.84;85.82
46642;BME280;32370;41.864;-88.124;2022-12-18T04:05:14;98687.81;;;-8.37;85.09
46642;BME280;32370;41.864;-88.124;2022-12-18T04:07:43;98692.77;;;-8.52;83.84
46642;BME280;32370;41.864;-88.124;2022-12-18T04:10:13;98690.45;;;-8.91;84.59
46642;BME280;32370;41.864;-88.124;2022-12-18T04:12:42;98688.84;;;-9.35;85.43
46642;BME280;32370;41.864;-88.124;2022-12-18T04:15:11;98701.20;;;-8.93;85.30
46642;BME280;32370;41.864;-88.124;2022-12-18T04:17:46;98691.03;;;-8.83;85.63
46642;BME280;32370;41.864;-88.124;2022-12-18T04:20:15;98700.09;;;-8.51;85.47
46642;BME280;32370;41.864;-88.124;2022-12-18T04:22:44;98696.38;;;-8.81;86.06
46642;BME280;32370;41.864;-88.124;2022-12-18T04:25:12;98695.12;;;-8.52;87.00
46642;BME280;32370;41.864;-88.124;2022-12-18T04:27:40;98697.84;;;-8.37;86.49
46642;BME280;32370;41.864;-88.124;2022-12-18T04:30:09;98703.75;;;-8.78;86.27
46642;BME280;32370;41.864;-88.124;2022-12-18T04:32:38;98701.21;;;-8.64;86.57
46642;BME280;32370;41.864;-88.124;2022-12-18T04:35:07;98702.53;;;-8.71;86.76
46642;BME280;32370;41.864;-88.124;2022-12-18T04:37:35;98699.05;;;-8.62;86.82
46642;BME280;32370;41.864;-88.124;2022-12-18T04:40:04;98701.27;;;-8.09;86.43
46642;BME280;32370;41.864;-88.124;2022-12-18T04:42:32;98708.37;;;-8.69;85.24
46642;BME280;32370;41.864;-88.124;2022-12-18T04:45:01;98709.10;;;-8.26;84.57
46642;BME280;32370;41.864;-88.124;2022-12-18T04:47:29;98712.22;;;-8.63;84.23
46642;BME280;32370;41.864;-88.124;2022-12-18T04:49:57;98711.63;;;-8.60;84.16
46642;BME280;32370;41.864;-88.124;2022-12-18T04:52:25;98713.36;;;-8.89;85.72
46642;BME280;32370;41.864;-88.124;2022-12-18T04:54:53;98717.84;;;-8.76;85.11
46642;BME280;32370;41.864;-88.124;2022-12-18T04:57:21;98720.19;;;-9.05;84.86
46642;BME280;32370;41.864;-88.124;2022-12-18T04:59:49;98721.55;;;-9.07;83.42
46642;BME280;32370;41.864;-88.124;2022-12-18T05:02:18;98725.30;;;-9.17;84.11
46642;BME280;32370;41.864;-88.124;2022-12-18T05:04:46;98725.49;;;-8.63;84.89
46642;BME280;32370;41.864;-88.124;2022-12-18T05:07:14;98728.24;;;-8.60;84.10
46642;BME280;32370;41.864;-88.124;2022-12-18T05:09:42;98730.63;;;-8.45;84.61
46642;BME280;32370;41.864;-88.124;2022-12-18T05:12:10;98731.62;;;-9.06;83.31
46642;BME280;32370;41.864;-88.124;2022-12-18T05:14:38;98734.17;;;-9.14;85.64
46642;BME280;32370;41.864;-88.124;2022-12-18T05:17:06;98732.74;;;-8.84;86.17
46642;BME280;32370;41.864;-88.124;2022-12-18T05:19:35;98737.50;;;-9.52;86.45
46642;BME280;32370;41.864;-88.124;2022-12-18T05:22:03;98734.23;;;-9.51;86.62
46642;BME280;32370;41.864;-88.124;2022-12-18T05:24:31;98744.96;;;-9.48;86.14
46642;BME280;32370;41.864;-88.124;2022-12-18T05:26:59;98740.05;;;-9.02;85.60
46642;BME280;32370;41.864;-88.124;2022-12-18T05:29:27;98734.11;;;-9.11;85.31
46642;BME280;32370;41.864;-88.124;2022-12-18T05:31:55;98734.83;;;-9.01;84.22
46642;BME280;32370;41.864;-88.124;2022-12-18T05:34:25;98740.95;;;-8.86;85.52
46642;BME280;32370;41.864;-88.124;2022-12-18T05:36:52;98750.63;;;-9.34;85.60
46642;BME280;32370;41.864;-88.124;2022-12-18T05:39:21;98748.14;;;-8.90;84.13
46642;BME280;32370;41.864;-88.124;2022-12-18T05:41:49;98746.09;;;-9.02;84.34
46642;BME280;32370;41.864;-88.124;2022-12-18T05:44:17;98747.38;;;-9.50;85.43
46642;BME280;32370;41.864;-88.124;2022-12-18T05:46:45;98748.46;;;-9.13;86.21
46642;BME280;32370;41.864;-88.124;2022-12-18T05:49:13;98747.63;;;-9.18;84.85
46642;BME280;32370;41.864;-88.124;2022-12-18T05:51:41;98748.10;;;-9.65;85.68
46642;BME280;32370;41.864;-88.124;2022-12-18T05:54:10;98747.96;;;-10.04;85.87
46642;BME280;32370;41.864;-88.124;2022-12-18T05:56:38;98752.08;;;-9.64;85.83
46642;BME280;32370;41.864;-88.124;2022-12-18T05:59:06;98753.47;;;-9.97;85.70
46642;BME280;32370;41.864;-88.124;2022-12-18T06:01:34;98754.02;;;-9.90;86.52
46642;BME280;32370;41.864;-88.124;2022-12-18T06:04:02;98755.74;;;-9.59;86.13
46642;BME280;32370;41.864;-88.124;2022-12-18T06:06:30;98752.64;;;-9.55;86.59
46642;BME280;32370;41.864;-88.124;2022-12-18T06:08:59;98756.48;;;-9.68;86.15
46642;BME280;32370;41.864;-88.124;2022-12-18T06:11:35;98757.76;;;-9.42;87.29
46642;BME280;32370;41.864;-88.124;2022-12-18T06:14:04;98762.40;;;-9.54;87.42
46642;BME280;32370;41.864;-88.124;2022-12-18T06:16:33;98767.65;;;-9.53;87.04
46642;BME280;32370;41.864;-88.124;2022-12-18T06:19:03;98764.28;;;-9.44;86.87
46642;BME280;32370;41.864;-88.124;2022-12-18T06:21:32;98766.33;;;-9.75;86.31
46642;BME280;32370;41.864;-88.124;2022-12-18T06:24:00;98765.34;;;-9.39;87.61
46642;BME280;32370;41.864;-88.124;2022-12-18T06:26:28;98764.41;;;-9.77;86.87
46642;BME280;32370;41.864;-88.124;2022-12-18T06:28:56;98765.01;;;-10.07;86.90
46642;BME280;32370;41.864;-88.124;2022-12-18T06:31:24;98771.02;;;-9.57;86.77
46642;BME280;32370;41.864;-88.124;2022-12-18T06:33:52;98768.13;;;-9.46;86.31
46642;BME280;32370;41.864;-88.124;2022-12-18T06:36:22;98771.61;;;-9.84;85.60
46642;BME280;32370;41.864;-88.124;2022-12-18T06:38:50;98767.34;;;-9.97;85.47
46642;BME280;32370;41.864;-88.124;2022-12-18T06:41:20;98779.34;;;-9.61;86.40
46642;BME280;32370;41.864;-88.124;2022-12-18T06:43:49;98781.77;;;-9.48;86.13
46642;BME280;32370;41.864;-88.124;2022-12-18T06:46:17;98779.23;;;-10.00;85.52
46642;BME280;32370;41.864;-88.124;2022-12-18T06:48:48;98783.81;;;-9.76;86.10
46642;BME280;32370;41.864;-88.124;2022-12-18T06:51:17;98786.64;;;-10.18;85.86
46642;BME280;32370;41.864;-88.124;2022-12-18T06:53:46;98791.59;;;-9.66;85.95
46642;BME280;32370;41.864;-88.124;2022-12-18T06:56:14;98791.81;;;-10.07;85.51
46642;BME280;32370;41.864;-88.124;2022-12-18T06:58:42;98794.37;;;-9.67;85.76
46642;BME280;32370;41.864;-88.124;2022-12-18T07:01:12;98795.85;;;-10.07;85.06
46642;BME280;32370;41.864;-88.124;2022-12-18T07:03:41;98799.80;;;-10.14;85.38
46642;BME280;32370;41.864;-88.124;2022-12-18T07:06:15;98802.33;;;-10.30;85.77
46642;BME280;32370;41.864;-88.124;2022-12-18T07:08:43;98811.42;;;-9.89;86.93
46642;BME280;32370;41.864;-88.124;2022-12-18T07:11:12;98812.57;;;-9.71;85.83
46642;BME280;32370;41.864;-88.124;2022-12-18T07:13:40;98814.35;;;-9.91;84.80
46642;BME280;32370;41.864;-88.124;2022-12-18T07:16:10;98813.34;;;-10.07;83.84
46642;BME280;32370;41.864;-88.124;2022-12-18T07:18:39;98815.76;;;-10.14;85.04
46642;BME280;32370;41.864;-88.124;2022-12-18T07:21:08;98820.83;;;-10.22;86.09
46642;BME280;32370;41.864;-88.124;2022-12-18T07:23:37;98822.07;;;-9.85;85.11
46642;BME280;32370;41.864;-88.124;2022-12-18T07:26:07;98827.67;;;-9.41;84.89
46642;BME280;32370;41.864;-88.124;2022-12-18T07:28:38;98830.03;;;-9.92;84.44
46642;BME280;32370;41.864;-88.124;2022-12-18T07:31:06;98833.26;;;-9.44;83.58
46642;BME280;32370;41.864;-88.124;2022-12-18T07:33:35;98835.36;;;-10.12;83.46
46642;BME280;32370;41.864;-88.124;2022-12-18T07:36:05;98837.38;;;-9.88;84.08
46642;BME280;32370;41.864;-88.124;2022-12-18T07:38:36;98836.14;;;-9.83;83.53
46642;BME280;32370;41.864;-88.124;2022-12-18T07:41:06;98834.40;;;-9.51;82.93
46642;BME280;32370;41.864;-88.124;2022-12-18T07:43:35;98841.18;;;-9.58;82.30
46642;BME280;32370;41.864;-88.124;2022-12-18T07:46:04;98843.66;;;-9.03;82.04
46642;BME280;32370;41.864;-88.124;2022-12-18T07:48:32;98853.06;;;-9.83;81.78
46642;BME280;32370;41.864;-88.124;2022-12-18T07:51:00;98850.59;;;-9.43;81.89
46642;BME280;32370;41.864;-88.124;2022-12-18T07:53:28;98857.24;;;-9.82;82.23
46642;BME280;32370;41.864;-88.124;2022-12-18T07:55:56;98868.54;;;-9.87;82.13
46642;BME280;32370;41.864;-88.124;2022-12-18T07:58:24;98866.86;;;-9.06;81.83
46642;BME280;32370;41.864;-88.124;2022-12-18T08:00:52;98868.87;;;-9.62;80.53
46642;BME280;32370;41.864;-88.124;2022-12-18T08:03:20;98873.01;;;-10.37;81.40
46642;BME280;32370;41.864;-88.124;2022-12-18T08:05:48;98875.29;;;-10.04;83.30
46642;BME280;32370;41.864;-88.124;2022-12-18T08:08:17;98876.34;;;-9.94;83.20
46642;BME280;32370;41.864;-88.124;2022-12-18T08:10:45;98878.41;;;-9.31;82.36
46642;BME280;32370;41.864;-88.124;2022-12-18T08:13:13;98886.89;;;-9.90;81.04
46642;BME280;32370;41.864;-88.124;2022-12-18T08:15:41;98895.15;;;-9.95;81.36
46642;BME280;32370;41.864;-88.124;2022-12-18T08:18:09;98903.25;;;-9.41;81.95
46642;BME280;32370;41.864;-88.124;2022-12-18T08:20:38;98915.27;;;-9.94;80.12
46642;BME280;32370;41.864;-88.124;2022-12-18T08:23:06;98913.93;;;-9.64;80.44
46642;BME280;32370;41.864;-88.124;2022-12-18T08:25:34;98914.31;;;-9.62;81.52
46642;BME280;32370;41.864;-88.124;2022-12-18T08:28:02;98914.47;;;-10.02;81.28
46642;BME280;32370;41.864;-88.124;2022-12-18T08:30:30;98918.60;;;-10.22;81.60
46642;BME280;32370;41.864;-88.124;2022-12-18T08:32:58;98913.99;;;-9.85;81.45
46642;BME280;32370;41.864;-88.124;2022-12-18T08:35:26;98919.95;;;-9.53;81.87
46642;BME280;32370;41.864;-88.124;2022-12-18T08:37:55;98918.06;;;-10.37;82.21
46642;BME280;32370;41.864;-88.124;2022-12-18T08:40:25;98917.98;;;-9.73;82.47
46642;BME280;32370;41.864;-88.124;2022-12-18T08:42:54;98911.81;;;-10.37;82.77
46642;BME280;32370;41.864;-88.124;2022-12-18T08:45:22;98911.82;;;-9.63;83.49
46642;BME280;32370;41.864;-88.124;2022-12-18T08:47:50;98917.72;;;-9.82;82.14
46642;BME280;32370;41.864;-88.124;2022-12-18T08:50:18;98917.80;;;-10.16;82.75
46642;BME280;32370;41.864;-88.124;2022-12-18T08:52:46;98915.35;;;-10.37;83.76
46642;BME280;32370;41.864;-88.124;2022-12-18T08:55:15;98917.45;;;-10.14;84.96
46642;BME280;32370;41.864;-88.124;2022-12-18T08:57:43;98923.18;;;-10.48;85.38
46642;BME280;32370;41.864;-88.124;2022-12-18T09:00:12;98925.75;;;-10.71;84.91
46642;BME280;32370;41.864;-88.124;2022-12-18T09:02:40;98923.00;;;-10.45;85.07
46642;BME280;32370;41.864;-88.124;2022-12-18T09:05:09;98925.63;;;-10.55;84.94
46642;BME280;32370;41.864;-88.124;2022-12-18T09:07:37;98930.27;;;-10.43;85.40
46642;BME280;32370;41.864;-88.124;2022-12-18T09:10:05;98931.22;;;-10.33;85.58
46642;BME280;32370;41.864;-88.124;2022-12-18T09:12:33;98931.49;;;-10.02;83.82
46642;BME280;32370;41.864;-88.124;2022-12-18T09:15:02;98941.83;;;-10.31;83.90
46642;BME280;32370;41.864;-88.124;2022-12-18T09:17:31;98940.85;;;-10.08;84.03
46642;BME280;32370;41.864;-88.124;2022-12-18T09:19:59;98939.35;;;-9.95;82.47
46642;BME280;32370;41.864;-88.124;2022-12-18T09:22:27;98939.18;;;-10.02;81.70
46642;BME280;32370;41.864;-88.124;2022-12-18T09:24:55;98939.58;;;-10.29;82.51
46642;BME280;32370;41.864;-88.124;2022-12-18T09:27:23;98942.45;;;-9.97;82.62
46642;BME280;32370;41.864;-88.124;2022-12-18T09:29:52;98947.01;;;-9.92;82.67
46642;BME280;32370;41.864;-88.124;2022-12-18T09:32:20;98944.92;;;-9.80;80.78
46642;BME280;32370;41.864;-88.124;2022-12-18T09:34:48;98960.45;;;-10.48;80.91
46642;BME280;32370;41.864;-88.124;2022-12-18T09:37:16;98964.09;;;-10.24;82.33
46642;BME280;32370;41.864;-88.124;2022-12-18T09:39:44;98959.80;;;-9.95;82.54
46642;BME280;32370;41.864;-88.124;2022-12-18T09:42:19;98965.96;;;-10.08;81.86
46642;BME280;32370;41.864;-88.124;2022-12-18T09:44:51;98965.08;;;-10.59;82.96
46642;BME280;32370;41.864;-88.124;2022-12-18T09:47:23;98968.78;;;-10.18;82.22
46642;BME280;32370;41.864;-88.124;2022-12-18T09:49:55;98976.59;;;-9.77;81.40
46642;BME280;32370;41.864;-88.124;2022-12-18T09:52:26;98981.75;;;-10.72;80.23
46642;BME280;32370;41.864;-88.124;2022-12-18T09:55:00;98984.12;;;-10.71;82.84
46642;BME280;32370;41.864;-88.124;2022-12-18T09:57:32;98988.30;;;-10.87;82.25
46642;BME280;32370;41.864;-88.124;2022-12-18T10:00:09;98986.00;;;-10.93;83.07
46642;BME280;32370;41.864;-88.124;2022-12-18T10:02:42;98992.01;;;-10.57;83.45
46642;BME280;32370;41.864;-88.124;2022-12-18T10:05:13;98994.75;;;-10.80;82.98
46642;BME280;32370;41.864;-88.124;2022-12-18T10:07:52;99001.87;;;-10.82;81.57
46642;BME280;32370;41.864;-88.124;2022-12-18T10:10:31;99008.76;;;-10.97;81.37
46642;BME280;32370;41.864;-88.124;2022-12-18T10:13:10;99007.20;;;-11.02;80.66
46642;BME280;32370;41.864;-88.124;2022-12-18T10:15:52;99013.27;;;-11.00;81.69
46642;BME280;32370;41.864;-88.124;2022-12-18T10:18:34;99015.38;;;-10.86;82.63
46642;BME280;32370;41.864;-88.124;2022-12-18T10:21:10;99012.23;;;-10.91;82.03
46642;BME280;32370;41.864;-88.124;2022-12-18T10:23:43;99019.14;;;-10.64;82.56
46642;BME280;32370;41.864;-88.124;2022-12-18T10:26:15;99020.45;;;-10.88;82.68
46642;BME280;32370;41.864;-88.124;2022-12-18T10:28:44;99023.38;;;-10.81;81.30
46642;BME280;32370;41.864;-88.124;2022-12-18T10:31:16;99025.01;;;-11.42;83.63
46642;BME280;32370;41.864;-88.124;2022-12-18T10:33:44;99019.77;;;-10.77;83.57
46642;BME280;32370;41.864;-88.124;2022-12-18T10:36:12;99026.34;;;-11.05;83.05
46642;BME280;32370;41.864;-88.124;2022-12-18T10:38:40;99028.81;;;-10.77;83.70
46642;BME280;32370;41.864;-88.124;2022-12-18T10:41:25;99028.71;;;-10.50;82.90
46642;BME280;32370;41.864;-88.124;2022-12-18T10:44:14;99038.70;;;-10.69;82.87
46642;BME280;32370;41.864;-88.124;2022-12-18T10:46:44;99038.98;;;-9.98;82.41
46642;BME280;32370;41.864;-88.124;2022-12-18T10:49:22;99039.75;;;-9.87;81.21
46642;BME280;32370;41.864;-88.124;2022-12-18T10:51:51;99042.68;;;-10.75;81.75
46642;BME280;32370;41.864;-88.124;2022-12-18T10:54:33;99044.92;;;-10.36;81.76
46642;BME280;32370;41.864;-88.124;2022-12-18T10:57:16;99048.69;;;-10.42;83.12
46642;BME280;32370;41.864;-88.124;2022-12-18T10:59:53;99049.18;;;-10.58;83.27
46642;BME280;32370;41.864;-88.124;2022-12-18T11:02:37;99051.49;;;-10.74;82.73
46642;BME280;32370;41.864;-88.124;2022-12-18T11:05:25;99047.52;;;-10.74;83.30
46642;BME280;32370;41.864;-88.124;2022-12-18T11:07:52;99049.22;;;-10.84;83.75
46642;BME280;32370;41.864;-88.124;2022-12-18T11:10:23;99050.17;;;-10.59;83.86
46642;BME280;32370;41.864;-88.124;2022-12-18T11:12:52;99053.06;;;-10.97;84.44
46642;BME280;32370;41.864;-88.124;2022-12-18T11:15:23;99057.73;;;-10.63;83.75
46642;BME280;32370;41.864;-88.124;2022-12-18T11:17:53;99055.44;;;-10.77;84.82
46642;BME280;32370;41.864;-88.124;2022-12-18T11:20:27;99064.05;;;-11.30;84.87
46642;BME280;32370;41.864;-88.124;2022-12-18T11:22:59;99065.63;;;-10.94;85.64
46642;BME280;32370;41.864;-88.124;2022-12-18T11:25:28;99067.55;;;-11.37;86.20
46642;BME280;32370;41.864;-88.124;2022-12-18T11:27:59;99069.80;;;-11.23;86.25
46642;BME280;32370;41.864;-88.124;2022-12-18T11:30:30;99073.20;;;-10.87;86.04
46642;BME280;32370;41.864;-88.124;2022-12-18T11:33:03;99075.31;;;-11.16;86.19
46642;BME280;32370;41.864;-88.124;2022-12-18T11:35:45;99084.12;;;-11.46;87.25
46642;BME280;32370;41.864;-88.124;2022-12-18T11:38:21;99083.51;;;-11.13;87.57
46642;BME280;32370;41.864;-88.124;2022-12-18T11:40:55;99084.40;;;-11.00;88.04
46642;BME280;32370;41.864;-88.124;2022-12-18T11:43:28;99089.28;;;-10.83;87.51
46642;BME280;32370;41.864;-88.124;2022-12-18T11:46:04;99097.69;;;-11.06;87.50
46642;BME280;32370;41.864;-88.124;2022-12-18T11:48:36;99096.42;;;-10.91;87.71
46642;BME280;32370;41.864;-88.124;2022-12-18T11:51:11;99098.27;;;-10.72;88.72
46642;BME280;32370;41.864;-88.124;2022-12-18T11:53:41;99099.35;;;-10.61;87.23
46642;BME280;32370;41.864;-88.124;2022-12-18T11:56:27;99100.89;;;-10.48;86.78
46642;BME280;32370;41.864;-88.124;2022-12-18T11:59:05;99101.19;;;-10.65;84.63
46642;BME280;32370;41.864;-88.124;2022-12-18T12:01:44;99102.60;;;-10.84;84.64
46642;BME280;32370;41.864;-88.124;2022-12-18T12:05:00;99107.11;;;-10.36;83.49
46642;BME280;32370;41.864;-88.124;2022-12-18T12:07:37;99112.26;;;-10.84;83.61
46642;BME280;32370;41.864;-88.124;2022-12-18T12:10:22;99116.96;;;-10.22;83.06
46642;BME280;32370;41.864;-88.124;2022-12-18T12:13:03;99121.62;;;-11.23;82.65
46642;BME280;32370;41.864;-88.124;2022-12-18T12:15:42;99122.93;;;-10.97;81.93
46642;BME280;32370;41.864;-88.124;2022-12-18T12:18:21;99130.35;;;-10.93;84.10
46642;BME280;32370;41.864;-88.124;2022-12-18T12:20:58;99125.03;;;-10.65;83.15
46642;BME280;32370;41.864;-88.124;2022-12-18T12:23:38;99122.79;;;-10.11;81.79
46642;BME280;32370;41.864;-88.124;2022-12-18T12:26:11;99129.49;;;-10.42;81.00
46642;BME280;32370;41.864;-88.124;2022-12-18T12:28:57;99138.34;;;-11.38;82.71
46642;BME280;32370;41.864;-88.124;2022-12-18T12:31:40;99137.90;;;-11.08;84.24
46642;BME280;32370;41.864;-88.124;2022-12-18T12:34:16;99143.68;;;-10.98;84.65
46642;BME280;32370;41.864;-88.124;2022-12-18T12:36:55;99147.46;;;-10.64;84.72
46642;BME280;32370;41.864;-88.124;2022-12-18T12:39:32;99151.75;;;-10.65;83.98
46642;BME280;32370;41.864;-88.124;2022-12-18T12:42:02;99158.89;;;-10.95;82.45
46642;BME280;32370;41.864;-88.124;2022-12-18T12:44:34;99155.15;;;-10.77;83.49
46642;BME280;32370;41.864;-88.124;2022-12-18T12:47:16;99163.93;;;-11.21;83.49
46642;BME280;32370;41.864;-88.124;2022-12-18T12:49:46;99172.03;;;-11.26;82.68
46642;BME280;32370;41.864;-88.124;2022-12-18T12:52:20;99174.31;;;-11.13;84.52
46642;BME280;32370;41.864;-88.124;2022-12-18T12:54:52;99179.10;;;-11.24;84.78